Time;durP1;ratioP1;P1;durP2;ratioP2;P2;SDS_P1;SDS_P2;PMS_P1;PMS_P2;Temp;Humidity;BMP_temperature;BMP_pressure;BME280_temperature;BME280_humidity;BME280_pressure;Samples;Min_cycle;Max_cycle;Signal;HPM_P1;HPM_P2
2024/01/31 07:35:24;;;;;;;0.73;0.73;;;8.30;99.90;11.00;102999.00;;;;6305282;22;20255;-76
2024/01/31 07:38:09;;;;;;;0.30;0.30;;;8.40;99.90;10.40;103023.00;;;;5066207;28;20605;-73
2024/01/31 07:40:35;;;;;;;0.67;0.67;;;8.20;99.90;10.60;103041.00;;;;5052664;28;20187;-73
2024/01/31 07:43:01;;;;;;;1.23;1.23;;;8.20;99.90;10.60;103030.00;;;;5050398;28;20199;-73
2024/01/31 07:45:28;;;;;;;1.13;1.13;;;8.20;99.90;10.70;103025.00;;;;5050432;28;20221;-73
2024/01/31 07:47:56;;;;;;;0.40;0.40;;;8.30;99.90;11.00;103024.00;;;;5065374;28;20189;-73
2024/01/31 07:50:23;;;;;;;0.50;0.50;;;8.30;99.90;11.10;103028.00;;;;5050425;28;20200;-74
2024/01/31 07:52:49;;;;;;;0.97;0.97;;;8.50;99.90;10.60;103023.00;;;;5056384;28;20654;-74
2024/01/31 07:55:15;;;;;;;1.30;1.30;;;8.40;99.90;10.20;103028.00;;;;5050329;28;20214;-74
2024/01/31 07:57:41;;;;;;;1.37;1.27;;;8.20;99.90;10.30;103033.00;;;;5064316;28;20203;-74
2024/01/31 08:00:10;;;;;;;2.57;1.47;;;8.20;99.90;9.90;103027.00;;;;5048616;28;20194;-74
2024/01/31 08:02:36;;;;;;;0.40;0.40;;;8.10;99.90;10.50;103035.00;;;;5065529;28;20203;-73
2024/01/31 08:05:05;;;;;;;0.70;0.70;;;8.20;99.90;10.40;103030.00;;;;5049860;28;20183;-73
2024/01/31 08:07:34;;;;;;;0.40;0.40;;;8.20;99.90;11.00;102980.00;;;;5048065;28;20284;-73
2024/01/31 08:10:00;;;;;;;1.27;0.87;;;8.40;99.90;10.70;103024.00;;;;5049974;28;20193;-73
2024/01/31 08:12:31;;;;;;;1.90;1.30;;;8.40;99.90;11.10;103037.00;;;;5048719;28;20189;-78
2024/01/31 08:14:57;;;;;;;2.67;2.57;;;8.60;99.90;10.80;103038.00;;;;5048716;28;20196;-78
2024/01/31 08:17:23;;;;;;;0.40;0.40;;;8.40;99.90;11.10;103046.00;;;;5048495;28;20570;-78
2024/01/31 08:19:49;;;;;;;2.73;1.73;;;8.50;99.90;11.00;103020.00;;;;5046236;28;20191;-79
2024/01/31 08:22:15;;;;;;;0.60;0.60;;;8.60;99.90;11.10;103022.00;;;;5040119;28;20184;-76
2024/01/31 08:24:44;;;;;;;0.63;0.63;;;8.60;99.90;11.20;103041.00;;;;5046245;28;20196;-73
2024/01/31 08:27:13;;;;;;;0.50;0.50;;;8.80;99.90;10.80;102986.00;;;;5049201;28;20594;-76
2024/01/31 08:29:39;;;;;;;0.30;0.30;;;8.60;99.90;11.00;103036.00;;;;5062586;28;20187;-76
2024/01/31 08:32:08;;;;;;;1.07;1.07;;;8.50;99.90;11.60;103001.00;;;;5048832;28;20648;-76
2024/01/31 08:41:56;;;;;;;4.10;3.70;;;9.10;99.90;11.40;103043.00;;;;5045329;28;20242;-76
2024/01/31 08:44:22;;;;;;;3.57;2.90;;;9.00;99.90;11.40;103032.00;;;;5048896;28;20615;-76
2024/01/31 08:46:48;;;;;;;1.83;1.37;;;8.80;99.90;11.40;103042.00;;;;5063513;28;20188;-77
2024/01/31 08:49:15;;;;;;;3.50;2.40;;;8.90;99.90;11.00;103036.00;;;;5034544;28;20670;-77
2024/01/31 08:51:41;;;;;;;2.73;1.47;;;8.70;99.90;11.30;102989.00;;;;5032219;28;20567;-77
2024/01/31 08:54:07;;;;;;;0.93;0.93;;;8.60;99.90;11.70;103032.00;;;;5035309;28;20201;-77
2024/01/31 08:56:35;;;;;;;0.97;0.93;;;8.90;99.90;10.60;103020.00;;;;5033672;28;20209;-76
2024/01/31 08:59:01;;;;;;;0.70;0.70;;;8.70;99.90;11.50;103010.00;;;;5033726;28;20639;-76
2024/01/31 09:01:28;;;;;;;1.53;1.47;;;8.80;99.90;11.20;103006.00;;;;5034415;28;20658;-77
2024/01/31 09:03:55;;;;;;;2.17;1.03;;;8.80;99.90;10.50;103011.00;;;;5033313;28;20659;-73
2024/01/31 09:06:22;;;;;;;2.50;1.33;;;8.70;99.90;11.00;103001.00;;;;5035677;28;20205;-78
2024/01/31 09:08:51;;;;;;;1.90;1.80;;;8.60;99.90;11.30;103003.00;;;;5017818;28;20558;-78
2024/01/31 09:11:18;;;;;;;0.30;0.30;;;8.70;99.90;10.90;102978.00;;;;5034299;28;20200;-79
2024/01/31 09:13:44;;;;;;;1.60;1.50;;;8.70;99.90;11.00;102967.00;;;;5040308;28;20580;-78
2024/01/31 09:16:10;;;;;;;6.23;1.90;;;8.70;99.90;11.20;102984.00;;;;5038269;28;20216;-79
2024/01/31 09:18:35;;;;;;;1.90;1.23;;;8.70;99.90;11.10;102967.00;;;;5031582;28;20560;-71
2024/01/31 09:21:01;;;;;;;0.40;0.40;;;8.70;99.90;11.40;102986.00;;;;5037792;28;20201;-71
2024/01/31 09:23:27;;;;;;;2.43;0.97;;;8.90;99.90;10.60;102975.00;;;;5033545;28;20195;-77
2024/01/31 09:25:53;;;;;;;2.67;2.37;;;8.70;99.90;10.50;102978.00;;;;5049879;28;20209;-77
2024/01/31 09:28:20;;;;;;;2.93;1.90;;;8.60;99.90;11.00;102986.00;;;;5052038;28;20203;-77
2024/01/31 09:30:49;;;;;;;2.20;0.77;;;8.70;99.90;10.70;102980.00;;;;5033558;28;20207;-76
2024/01/31 09:33:14;;;;;;;1.27;1.27;;;8.60;99.90;11.40;102987.00;;;;5032880;28;20207;-78
2024/01/31 09:35:43;;;;;;;1.37;1.33;;;8.70;99.90;10.30;102999.00;;;;5030707;28;20209;-77
2024/01/31 09:38:09;;;;;;;0.60;0.60;;;8.60;99.90;10.30;102934.00;;;;5032759;28;20210;-77
2024/01/31 09:40:35;;;;;;;1.83;1.10;;;8.40;99.90;11.30;102964.00;;;;5040415;28;20300;-77
2024/01/31 09:43:02;;;;;;;0.30;0.30;;;8.70;99.90;11.00;102978.00;;;;5036077;28;20209;-77
2024/01/31 09:45:32;;;;;;;1.43;1.33;;;8.70;99.90;11.10;102993.00;;;;5030610;28;20200;-77
2024/01/31 09:48:00;;;;;;;2.00;1.90;;;8.80;99.90;11.60;103005.00;;;;5029661;28;20209;-77
2024/01/31 09:50:28;;;;;;;1.13;1.13;;;9.00;99.90;12.10;103013.00;;;;5029929;28;20199;-77
2024/01/31 09:52:57;;;;;;;0.90;0.90;;;9.20;99.90;11.40;103013.00;;;;5033052;28;20198;-77
2024/01/31 09:55:27;;;;;;;1.37;1.27;;;9.10;99.90;10.90;102996.00;;;;5033014;28;20210;-77
2024/01/31 09:57:53;;;;;;;0.80;0.80;;;8.90;99.90;11.20;102991.00;;;;5019308;28;20220;-77
2024/01/31 10:00:22;;;;;;;0.20;0.20;;;8.90;99.90;11.60;103005.00;;;;5039208;28;20209;-77
2024/01/31 10:02:51;;;;;;;0.30;0.30;;;9.00;99.90;12.30;103012.00;;;;5028133;28;20255;-77
2024/01/31 10:05:19;;;;;;;1.07;0.97;;;9.20;99.90;12.50;103002.00;;;;5033769;28;20209;-79
2024/01/31 10:07:45;;;;;;;0.87;0.63;;;9.50;99.90;12.70;103030.00;;;;5032719;28;20210;-79
2024/01/31 10:10:17;;;;;;;0.30;0.30;;;9.60;99.90;11.90;103025.00;;;;5031568;28;20206;-79
2024/01/31 10:12:43;;;;;;;0.20;0.20;;;9.50;99.90;11.90;103027.00;;;;5034115;28;20213;-79
2024/01/31 10:15:10;;;;;;;10.63;9.97;;;9.30;99.90;12.90;102998.00;;;;5033523;28;20195;-79
2024/01/31 10:17:36;;;;;;;0.80;0.73;;;9.60;99.90;12.80;103032.00;;;;5049024;28;20223;-79
2024/01/31 10:20:10;;;;;;;0.20;0.20;;;9.90;99.90;11.70;103024.00;;;;5048852;28;20216;-79
2024/01/31 10:33:27;;;;;;;1.60;0.60;;;9.40;99.90;11.40;103020.00;;;;5069872;28;20608;-79
2024/01/31 10:35:54;;;;;;;1.33;1.33;;;9.50;99.90;12.90;103053.00;;;;5048473;28;20222;-80
2024/01/31 10:38:20;;;;;;;0.10;0.10;;;10.20;99.90;14.60;103067.00;;;;5048758;28;20543;-80
2024/01/31 10:40:49;;;;;;;0.10;0.10;;;11.20;99.90;14.50;103060.00;;;;5046138;28;20220;-80
2024/01/31 10:43:16;;;;;;;0.10;0.10;;;11.40;99.90;14.40;103112.00;;;;5032176;28;20192;-79
2024/01/31 10:45:42;;;;;;;1.03;1.03;;;11.60;99.90;14.00;103126.00;;;;5048042;28;20629;-79
2024/01/31 10:48:08;;;;;;;0.50;0.50;;;11.60;99.90;14.40;103086.00;;;;5050072;28;20196;-80
2024/01/31 10:50:35;;;;;;;0.83;0.83;;;11.60;99.90;13.70;103169.00;;;;5049545;28;20196;-80
2024/01/31 10:53:04;;;;;;;0.10;0.10;;;11.30;99.90;14.70;103158.00;;;;5048331;28;20662;-80
2024/01/31 10:55:33;;;;;;;0.40;0.40;;;11.40;99.90;14.00;103167.00;;;;5048410;28;20259;-70
2024/01/31 10:58:01;;;;;;;0.30;0.30;;;11.20;99.90;14.00;103165.00;;;;5048157;28;20554;-77
2024/01/31 11:00:32;;;;;;;0.50;0.50;;;11.10;99.90;13.90;103160.00;;;;5046309;28;20251;-77
2024/01/31 11:03:00;;;;;;;0.17;0.17;;;11.10;99.90;14.60;103162.00;;;;5048741;28;20191;-77
2024/01/31 11:05:30;;;;;;;0.27;0.27;;;11.10;99.90;15.00;103133.00;;;;5048078;28;20669;-78
2024/01/31 11:07:56;;;;;;;4.60;1.10;;;11.50;99.90;14.20;103142.00;;;;5048033;28;20532;-77
2024/01/31 11:10:27;;;;;;;0.23;0.23;;;11.20;99.90;12.70;103163.00;;;;5047923;28;20339;-77
2024/01/31 11:13:04;;;;;;;0.87;0.63;;;10.80;99.90;13.10;103129.00;;;;5048190;28;20258;-75
2024/01/31 11:15:35;;;;;;;0.50;0.50;;;10.40;99.90;13.30;103129.00;;;;5047970;28;20194;-78
2024/01/31 11:18:12;;;;;;;0.20;0.20;;;10.60;99.90;13.80;103123.00;;;;5045618;28;20185;-80
2024/01/31 11:20:44;;;;;;;0.30;0.30;;;10.80;99.90;13.40;103128.00;;;;5047786;28;20192;-80
2024/01/31 11:23:15;;;;;;;0.10;0.10;;;10.80;99.90;13.80;103120.00;;;;5049472;28;20183;-82
2024/01/31 11:25:45;;;;;;;0.23;0.23;;;10.70;99.90;12.90;103124.00;;;;5029366;28;20191;-81
2024/01/31 11:28:12;;;;;;;0.20;0.20;;;10.50;99.90;13.30;103100.00;;;;5047967;28;20547;-82
2024/01/31 11:30:41;;;;;;;0.50;0.50;;;10.50;99.90;13.30;103067.00;;;;5027269;28;20195;-82
2024/01/31 11:33:08;;;;;;;0.20;0.20;;;10.30;99.90;12.40;103093.00;;;;5065400;28;20771;-79
2024/01/31 11:35:35;;;;;;;0.10;0.10;;;10.20;99.90;14.20;103036.00;;;;5047907;28;20214;-80
2024/01/31 11:38:02;;;;;;;0.77;0.77;;;10.70;99.90;13.30;103085.00;;;;5047657;28;20216;-80
2024/01/31 11:40:28;;;;;;;0.23;0.23;;;10.80;99.90;13.90;103052.00;;;;5047556;28;20197;-80
2024/01/31 11:42:56;;;;;;;3.97;2.30;;;10.70;99.90;13.60;103054.00;;;;5028149;28;20555;-80
2024/01/31 11:45:25;;;;;;;0.20;0.20;;;11.00;99.90;13.30;103051.00;;;;5033842;28;20541;-80
2024/01/31 11:47:54;;;;;;;0.77;0.77;;;10.90;99.90;14.40;103052.00;;;;5026578;28;20195;-79
2024/01/31 11:50:22;;;;;;;0.20;0.20;;;11.10;99.90;12.60;103062.00;;;;5034440;28;20672;-79
2024/01/31 11:52:50;;;;;;;0.30;0.30;;;10.90;99.90;13.40;103052.00;;;;5033780;28;20211;-76
2024/01/31 11:55:28;;;;;;;4.07;1.53;;;11.00;99.90;11.60;103063.00;;;;5034837;28;20271;-76
2024/01/31 11:57:54;;;;;;;0.20;0.20;;;10.10;99.90;12.40;103041.00;;;;5032481;28;20197;-76
2024/01/31 12:00:23;;;;;;;3.50;0.97;;;9.90;99.90;11.60;103035.00;;;;5034167;28;20185;-77
2024/01/31 12:02:52;;;;;;;3.30;1.23;;;9.80;99.90;13.00;102984.00;;;;5033697;28;20202;-76
2024/01/31 12:05:18;;;;;;;0.50;0.50;;;10.50;99.90;12.40;102977.00;;;;5043966;28;20189;-77
2024/01/31 12:07:56;;;;;;;1.80;0.50;;;10.20;99.90;13.50;102992.00;;;;5032197;28;20198;-76
2024/01/31 12:10:26;;;;;;;0.20;0.20;;;10.50;99.90;13.20;103022.00;;;;5066592;28;20195;-77
2024/01/31 12:12:55;;;;;;;0.27;0.27;;;10.80;99.90;12.80;103024.00;;;;5031938;28;20288;-76
2024/01/31 12:15:21;;;;;;;0.37;0.37;;;10.50;99.90;12.70;103016.00;;;;5037876;28;20700;-76
2024/01/31 12:17:47;;;;;;;0.43;0.37;;;10.20;99.90;12.30;103010.00;;;;5064178;28;20183;-77
2024/01/31 12:20:16;;;;;;;1.37;0.50;;;10.10;99.90;12.10;102999.00;;;;5035735;28;20278;-76
2024/01/31 12:22:42;;;;;;;0.10;0.10;;;10.00;99.90;12.60;102994.00;;;;5034836;28;20194;-76
2024/01/31 12:25:09;;;;;;;0.20;0.20;;;10.00;99.90;12.80;102993.00;;;;5029864;28;20646;-76
2024/01/31 12:27:35;;;;;;;0.67;0.67;;;10.20;99.90;13.50;102988.00;;;;5063254;28;20214;-76
2024/01/31 12:30:01;;;;;;;1.27;1.17;;;10.20;99.90;12.90;102988.00;;;;5033728;28;20242;-77
2024/01/31 12:32:30;;;;;;;0.10;0.10;;;10.20;99.90;12.70;102965.00;;;;5033496;28;20222;-76
2024/01/31 12:34:57;;;;;;;0.10;0.10;;;10.10;99.90;13.90;102986.00;;;;5014604;28;20195;-77
2024/01/31 12:37:25;;;;;;;0.70;0.70;;;10.60;99.90;13.20;103000.00;;;;5033161;28;20189;-76
2024/01/31 12:39:52;;;;;;;0.10;0.10;;;10.70;99.90;12.60;102992.00;;;;5034789;28;20187;-77
2024/01/31 12:42:18;;;;;;;0.10;0.10;;;10.20;99.90;13.50;102980.00;;;;5016068;28;20204;-76
2024/01/31 12:44:44;;;;;;;1.23;1.20;;;10.30;99.90;13.10;102988.00;;;;5034654;28;20192;-77
2024/01/31 12:47:11;;;;;;;0.60;0.50;;;10.50;99.90;12.00;102967.00;;;;5033250;28;20189;-79
2024/01/31 12:49:41;;;;;;;0.20;0.20;;;10.10;99.90;12.50;102998.00;;;;5016929;28;20186;-76
2024/01/31 12:52:08;;;;;;;0.20;0.20;;;10.10;99.90;11.70;103010.00;;;;5032491;28;20657;-76
2024/01/31 12:54:34;;;;;;;1.70;0.93;;;9.80;99.90;10.80;102982.00;;;;5016360;28;20276;-78
2024/01/31 12:57:00;;;;;;;0.17;0.17;;;9.40;99.90;11.60;102976.00;;;;5034070;28;20269;-75
2024/01/31 12:59:27;;;;;;;0.70;0.40;;;9.40;99.90;11.10;102984.00;;;;5033304;28;20231;-76
2024/01/31 13:01:53;;;;;;;1.07;0.53;;;9.50;99.90;10.60;102948.00;;;;5032158;28;20196;-74
2024/01/31 13:04:21;;;;;;;0.20;0.20;;;9.20;99.90;11.60;102936.00;;;;5033132;28;20187;-74
2024/01/31 13:06:48;;;;;;;0.10;0.10;;;9.30;99.90;11.70;102928.00;;;;5032891;28;20184;-74
2024/01/31 13:09:15;;;;;;;0.17;0.17;;;9.40;99.90;12.70;102937.00;;;;5025154;28;20194;-75
2024/01/31 13:11:41;;;;;;;2.07;1.17;;;9.80;99.90;10.30;102940.00;;;;5026247;28;20325;-82
2024/01/31 13:14:15;;;;;;;1.03;0.60;;;9.30;99.90;10.90;102913.00;;;;5032251;28;20265;-66
2024/01/31 13:16:44;;;;;;;1.80;0.30;;;9.10;99.90;12.10;102860.00;;;;5028398;28;20228;-80
2024/01/31 13:19:10;;;;;;;0.63;0.63;;;9.60;99.90;11.50;102930.00;;;;5016335;28;20182;-71
2024/01/31 13:21:37;;;;;;;0.20;0.20;;;9.50;99.90;11.90;102916.00;;;;5032964;28;20724;-67
2024/01/31 13:24:04;;;;;;;1.73;1.00;;;9.50;99.90;11.30;102912.00;;;;5016399;28;20201;-69
2024/01/31 13:26:35;;;;;;;0.10;0.10;;;9.50;99.90;11.60;102847.00;;;;5013422;28;20244;-74
2024/01/31 13:29:02;;;;;;;3.13;0.50;;;9.40;99.90;11.40;102897.00;;;;5032442;28;20241;-71
2024/01/31 13:31:30;;;;;;;1.43;1.20;;;9.40;99.90;11.00;102881.00;;;;5037127;28;20648;-71
2024/01/31 13:33:59;;;;;;;0.43;0.43;;;9.30;99.90;10.90;102880.00;;;;5031088;28;20224;-71
2024/01/31 13:36:27;;;;;;;0.73;0.73;;;9.20;99.90;11.30;102870.00;;;;5032280;28;20188;-72
2024/01/31 13:38:54;;;;;;;0.67;0.27;;;9.40;99.90;12.10;102838.00;;;;5045556;28;20565;-70
2024/01/31 13:41:22;;;;;;;2.97;2.77;;;9.60;99.90;10.50;102899.00;;;;5048342;28;20246;-70
2024/01/31 13:43:51;;;;;;;0.40;0.40;;;9.20;99.90;10.40;102846.00;;;;5033362;28;20200;-70
2024/01/31 13:46:18;;;;;;;1.03;0.90;;;8.90;99.90;10.60;102850.00;;;;5032912;28;20681;-71
2024/01/31 13:48:44;;;;;;;1.50;1.40;;;9.00;99.90;11.00;102859.00;;;;5032370;28;20217;-72
2024/01/31 13:51:13;;;;;;;2.27;1.47;;;9.20;99.90;11.30;102859.00;;;;5032343;28;20192;-72
2024/01/31 13:53:42;;;;;;;0.57;0.57;;;9.30;99.90;12.20;102834.00;;;;5033276;28;20237;-72
2024/01/31 13:56:08;;;;;;;1.63;0.93;;;9.50;99.90;10.20;102871.00;;;;5031972;28;20193;-72
2024/01/31 13:58:34;;;;;;;1.80;1.40;;;9.20;99.90;10.80;102838.00;;;;5033351;28;20185;-72
2024/01/31 14:01:00;;;;;;;0.90;0.90;;;9.10;99.90;10.50;102824.00;;;;5032348;28;20177;-71
2024/01/31 14:03:26;;;;;;;0.60;0.60;;;9.00;99.90;11.00;102818.00;;;;5014544;28;20183;-72
2024/01/31 14:05:55;;;;;;;1.30;1.17;;;9.00;99.90;11.70;102834.00;;;;5033015;28;20252;-69
2024/01/31 14:08:21;;;;;;;1.80;0.93;;;9.30;99.90;10.60;102836.00;;;;5033077;28;20664;-74
2024/01/31 14:10:47;;;;;;;2.00;1.53;;;9.30;99.90;10.90;102827.00;;;;5015117;28;20221;-71
2024/01/31 14:13:13;;;;;;;1.13;0.70;;;9.20;99.90;11.30;102818.00;;;;5032471;28;20296;-71
2024/01/31 14:15:40;;;;;;;1.60;1.40;;;9.20;99.90;10.50;102803.00;;;;5032343;28;20636;-71
2024/01/31 14:18:06;;;;;;;0.20;0.20;;;9.10;99.90;11.40;102806.00;;;;5032365;28;20650;-71
2024/01/31 14:20:34;;;;;;;0.50;0.50;;;9.30;99.90;11.20;102797.00;;;;5031045;28;20224;-71
2024/01/31 14:23:01;;;;;;;0.43;0.43;;;9.20;99.90;12.10;102769.00;;;;5031647;28;20637;-71
2024/01/31 14:25:27;;;;;;;1.70;0.77;;;9.40;99.90;10.60;102788.00;;;;5032914;28;20189;-70
2024/01/31 14:27:53;;;;;;;0.40;0.40;;;9.20;99.90;11.40;102781.00;;;;5015903;28;20189;-71
2024/01/31 14:30:19;;;;;;;0.97;0.50;;;9.30;99.90;11.40;102758.00;;;;5032982;28;20544;-71
2024/01/31 14:32:45;;;;;;;7.23;6.50;;;9.30;99.90;12.60;102742.00;;;;5030867;28;20218;-71
2024/01/31 14:35:11;;;;;;;0.23;0.23;;;9.60;99.90;13.70;102756.00;;;;5032170;28;20184;-72
2024/01/31 14:37:37;;;;;;;3.90;0.50;;;10.10;99.90;12.30;102805.00;;;;5031803;28;20200;-71
2024/01/31 14:40:03;;;;;;;0.20;0.20;;;9.90;99.90;12.30;102788.00;;;;5015365;28;20194;-71
2024/01/31 14:42:29;;;;;;;0.50;0.33;;;9.60;99.90;12.60;102804.00;;;;5031695;28;20190;-72
2024/01/31 14:44:55;;;;;;;0.30;0.30;;;9.90;99.90;12.40;102803.00;;;;5031309;28;20213;-71
2024/01/31 14:47:21;;;;;;;0.40;0.30;;;9.80;99.90;12.30;102793.00;;;;5031705;28;20195;-71
2024/01/31 14:49:47;;;;;;;0.20;0.20;;;9.70;99.90;12.40;102815.00;;;;5030110;28;20182;-71
2024/01/31 14:52:15;;;;;;;0.13;0.13;;;9.80;99.90;12.30;102806.00;;;;5030070;28;20253;-72
2024/01/31 14:54:41;;;;;;;1.10;0.90;;;9.80;99.90;12.10;102795.00;;;;5032716;28;20247;-71
2024/01/31 14:57:07;;;;;;;0.10;0.10;;;9.60;99.90;13.40;102798.00;;;;5031355;28;20183;-76
2024/01/31 14:59:34;;;;;;;0.10;0.10;;;9.90;99.90;13.90;102824.00;;;;5031415;28;20215;-69
2024/01/31 15:02:00;;;;;;;0.53;0.53;;;10.40;99.90;13.10;102826.00;;;;5031899;28;20278;-69
2024/01/31 15:04:26;;;;;;;1.07;1.00;;;10.10;99.90;11.20;102827.00;;;;5027829;28;20704;-73
2024/01/31 15:06:52;;;;;;;1.27;1.17;;;9.60;99.90;10.90;102808.00;;;;5044083;28;20205;-68
2024/01/31 15:09:18;;;;;;;0.30;0.30;;;9.30;99.90;11.50;102784.00;;;;5032995;28;20193;-71
2024/01/31 15:11:47;;;;;;;0.10;0.10;;;9.40;99.90;12.10;102774.00;;;;5031163;28;20605;-69
2024/01/31 15:14:13;;;;;;;0.10;0.10;;;9.40;99.90;12.70;102733.00;;;;5032770;28;20189;-70
2024/01/31 15:16:39;;;;;;;0.40;0.40;;;9.80;99.90;12.80;102801.00;;;;5013347;28;20198;-67
2024/01/31 15:19:07;;;;;;;0.73;0.67;;;9.90;99.90;12.10;102742.00;;;;5034359;28;20186;-66
2024/01/31 15:21:33;;;;;;;1.03;0.40;;;9.80;99.90;12.30;102799.00;;;;5029151;28;20716;-70
2024/01/31 15:23:59;;;;;;;0.43;0.43;;;9.90;99.90;11.70;102781.00;;;;5028522;28;20175;-69
2024/01/31 15:26:25;;;;;;;0.20;0.20;;;9.60;99.90;12.90;102791.00;;;;5035659;28;20699;-68
2024/01/31 15:28:51;;;;;;;2.00;0.77;;;9.90;99.90;12.40;102797.00;;;;5035815;28;20195;-68
2024/01/31 15:31:18;;;;;;;1.30;1.30;;;9.80;99.90;12.00;102799.00;;;;5034818;28;20203;-68
2024/01/31 15:33:44;;;;;;;2.07;1.23;;;9.70;99.90;11.70;102789.00;;;;5034853;28;20273;-68
2024/01/31 15:36:10;;;;;;;1.00;0.90;;;9.60;99.90;11.10;102769.00;;;;5017995;28;20613;-67
2024/01/31 15:38:36;;;;;;;1.03;1.00;;;9.30;99.90;11.20;102761.00;;;;5035874;28;20265;-67
2024/01/31 15:41:03;;;;;;;0.47;0.47;;;9.30;99.90;12.00;102752.00;;;;5034774;28;20184;-68
2024/01/31 15:43:29;;;;;;;0.50;0.50;;;9.40;99.90;12.40;102757.00;;;;5035953;28;20199;-68
2024/01/31 15:45:55;;;;;;;0.40;0.40;;;9.70;99.90;11.20;102771.00;;;;5033909;28;20518;-68
2024/01/31 15:48:22;;;;;;;6.13;2.63;;;9.40;99.90;11.20;102744.00;;;;5034632;28;20649;-68
2024/01/31 15:50:48;;;;;;;0.10;0.10;;;9.20;99.90;11.70;102739.00;;;;5017625;28;20301;-70
2024/01/31 15:53:16;;;;;;;2.77;1.50;;;9.40;99.90;10.40;102723.00;;;;5034483;28;20198;-69
2024/01/31 15:55:42;;;;;;;1.47;1.30;;;9.10;99.90;10.70;102714.00;;;;5018463;28;20653;-69
2024/01/31 15:58:08;;;;;;;0.57;0.57;;;9.10;99.90;11.30;102720.00;;;;5034333;28;20193;-69
2024/01/31 16:00:34;;;;;;;4.90;1.30;;;9.20;99.90;10.60;102719.00;;;;5034455;28;20179;-69
2024/01/31 16:03:00;;;;;;;4.13;1.87;;;9.10;99.90;10.90;102656.00;;;;5033888;28;20190;-70
2024/01/31 16:05:26;;;;;;;0.30;0.30;;;9.10;99.90;10.60;102690.00;;;;5033701;28;20235;-69
2024/01/31 16:07:53;;;;;;;2.33;1.23;;;9.10;99.90;11.10;102707.00;;;;5047234;28;20280;-70
2024/01/31 16:10:22;;;;;;;1.47;1.37;;;9.20;99.90;10.90;102724.00;;;;5050233;28;20553;-71
2024/01/31 16:12:49;;;;;;;3.87;1.13;;;9.30;99.90;11.90;102717.00;;;;5045966;28;20369;-70
2024/01/31 16:15:16;;;;;;;1.07;1.07;;;9.50;99.90;12.00;102693.00;;;;5034452;28;20221;-71
2024/01/31 16:17:42;;;;;;;2.27;1.30;;;9.50;99.90;10.90;102695.00;;;;5033801;28;20588;-71
2024/01/31 16:20:12;;;;;;;1.60;1.50;;;9.20;99.90;10.90;102688.00;;;;5033762;28;20280;-70
2024/01/31 16:22:39;;;;;;;10.43;2.10;;;9.20;99.90;11.20;102665.00;;;;5033775;28;20184;-70
2024/01/31 16:25:06;;;;;;;2.30;2.07;;;9.20;99.90;11.20;102665.00;;;;5034390;28;20330;-71
2024/01/31 16:27:36;;;;;;;1.80;1.70;;;9.30;99.90;10.90;102652.00;;;;5033713;28;20196;-71
2024/01/31 16:30:04;;;;;;;27.70;24.80;;;9.10;99.90;12.00;102663.00;;;;5033835;28;20196;-72
2024/01/31 16:32:48;;;;;;;0.70;0.70;;;9.40;99.90;11.20;102657.00;;;;5017067;28;20250;-71
2024/01/31 16:35:14;;;;;;;5.03;3.07;;;9.30;99.90;10.20;102650.00;;;;5029631;28;20211;-71
2024/01/31 16:37:40;;;;;;;3.07;2.77;;;9.00;99.90;10.30;102647.00;;;;5035028;28;20215;-71
2024/01/31 16:40:06;;;;;;;2.77;2.20;;;8.90;99.90;10.10;102625.00;;;;5034035;28;20678;-69
2024/01/31 16:42:32;;;;;;;0.87;0.87;;;8.80;99.90;11.10;102634.00;;;;5033581;28;20200;-72
2024/01/31 16:44:58;;;;;;;0.77;0.77;;;8.90;99.90;11.30;102649.00;;;;5033656;28;20651;-72
2024/01/31 16:47:24;;;;;;;3.30;3.00;;;9.10;99.90;10.40;102553.00;;;;5033422;28;20762;-72
2024/01/31 16:49:54;;;;;;;3.40;2.00;;;8.80;99.90;11.00;102621.00;;;;5034487;28;20194;-72
2024/01/31 16:52:20;;;;;;;2.57;1.40;;;8.90;99.90;10.00;102612.00;;;;5033191;28;20294;-72
2024/01/31 16:54:45;;;;;;;3.83;2.87;;;8.70;99.90;10.10;102615.00;;;;5016058;28;20268;-72
2024/01/31 16:57:14;;;;;;;4.60;4.23;;;8.50;99.90;10.50;102599.00;;;;5033028;28;20185;-71
2024/01/31 16:59:40;;;;;;;1.63;0.77;;;8.60;99.90;11.20;102621.00;;;;5033458;28;20243;-73
2024/01/31 17:02:06;;;;;;;5.40;3.23;;;8.90;99.90;10.10;102620.00;;;;5033093;28;20190;-68
2024/01/31 17:04:32;;;;;;;6.03;4.67;;;8.60;99.90;9.90;102621.00;;;;5032910;28;20191;-69
2024/01/31 17:06:58;;;;;;;14.57;7.20;;;8.50;99.90;9.90;102617.00;;;;5015900;28;20192;-69
2024/01/31 17:09:24;;;;;;;8.00;7.50;;;8.50;99.90;11.30;102606.00;;;;5033240;28;20187;-70
2024/01/31 17:11:52;;;;;;;4.57;3.60;;;8.60;99.90;10.50;102632.00;;;;5034230;28;20256;-71
2024/01/31 17:14:18;;;;;;;1.73;1.60;;;8.60;99.90;11.40;102621.00;;;;5033038;28;20194;-73
2024/01/31 17:16:46;;;;;;;5.63;2.97;;;8.80;99.90;11.00;102649.00;;;;5032978;28;20185;-73
2024/01/31 17:19:12;;;;;;;16.30;6.40;;;8.90;99.90;9.70;102651.00;;;;5032962;28;20260;-73
2024/01/31 17:21:38;;;;;;;6.10;5.33;;;8.60;99.90;10.30;102651.00;;;;5016530;28;20276;-72
2024/01/31 17:24:05;;;;;;;6.60;4.70;;;8.50;99.90;9.70;102626.00;;;;5033363;28;20185;-72
2024/01/31 17:26:31;;;;;;;1.97;1.87;;;8.40;99.90;10.60;102618.00;;;;5032753;28;20205;-72
2024/01/31 17:28:57;;;;;;;4.80;3.70;;;8.50;99.90;10.20;102618.00;;;;5033756;28;20184;-72
2024/01/31 17:31:26;;;;;;;6.37;4.97;;;8.50;99.90;9.60;102615.00;;;;5033404;28;20218;-73
2024/01/31 17:33:52;;;;;;;4.30;2.97;;;8.30;99.90;9.40;102538.00;;;;5017933;28;20184;-73
2024/01/31 17:36:18;;;;;;;1.00;1.00;;;8.20;99.90;9.80;102553.00;;;;5031672;28;20194;-72
2024/01/31 17:38:44;;;;;;;3.37;3.07;;;8.20;99.90;9.90;102608.00;;;;5033664;28;20189;-72
2024/01/31 17:41:19;;;;;;;1.20;1.20;;;8.20;99.90;10.20;102635.00;;;;5032636;28;20181;-73
2024/01/31 17:43:45;;;;;;;1.33;1.27;;;8.30;99.90;10.10;102632.00;;;;5032297;28;20197;-72
2024/01/31 17:46:22;;;;;;;1.13;1.03;;;8.30;99.90;10.10;102630.00;;;;5032093;28;20184;-72
2024/01/31 17:48:49;;;;;;;5.63;3.43;;;8.20;99.90;10.00;102635.00;;;;5031105;28;20194;-73
2024/01/31 17:51:16;;;;;;;9.60;8.17;;;8.20;99.90;10.00;102628.00;;;;5031705;28;20553;-72
2024/01/31 17:53:42;;;;;;;7.37;4.30;;;8.10;99.90;11.50;102565.00;;;;5009445;28;20186;-73
2024/01/31 17:56:14;;;;;;;11.03;10.07;;;8.40;99.90;10.20;102647.00;;;;5033077;28;20291;-72
2024/01/31 17:58:40;;;;;;;3.67;3.40;;;8.40;99.90;11.60;102577.00;;;;5033475;28;20727;-70
2024/01/31 18:01:07;;;;;;;7.17;5.17;;;8.60;99.90;10.80;102618.00;;;;5031415;28;20219;-70
2024/01/31 18:03:34;;;;;;;2.50;0.80;;;8.50;99.90;11.40;102621.00;;;;5033405;28;20269;-71
2024/01/31 18:06:01;;;;;;;2.20;1.07;;;8.50;99.90;10.30;102639.00;;;;5014729;28;20194;-70
2024/01/31 18:08:27;;;;;;;1.70;1.53;;;8.40;99.90;10.60;102630.00;;;;5016264;28;20193;-70
2024/01/31 18:10:56;;;;;;;0.20;0.20;;;8.30;99.90;11.20;102588.00;;;;5032794;28;20207;-71
2024/01/31 18:13:22;;;;;;;0.40;0.40;;;8.40;99.90;10.20;102627.00;;;;5015074;28;20291;-71
2024/01/31 18:15:48;;;;;;;0.20;0.20;;;8.30;99.90;11.60;102561.00;;;;5031492;28;20288;-68
2024/01/31 18:18:14;;;;;;;2.30;2.13;;;8.50;99.90;11.20;102623.00;;;;5033024;28;20179;-69
2024/01/31 18:20:41;;;;;;;2.30;2.20;;;8.50;99.90;11.30;102630.00;;;;5032783;28;20240;-69
2024/01/31 18:23:07;;;;;;;0.20;0.20;;;8.50;99.90;11.00;102613.00;;;;5032242;28;20187;-68
2024/01/31 18:25:33;;;;;;;0.20;0.20;;;8.40;99.90;10.80;102605.00;;;;5032752;28;20752;-69
2024/01/31 18:28:00;;;;;;;0.93;0.63;;;8.30;99.90;10.90;102613.00;;;;5031811;28;20179;-69
2024/01/31 18:30:26;;;;;;;3.33;1.33;;;8.30;99.90;9.70;102610.00;;;;5031776;28;20214;-68
2024/01/31 18:32:52;;;;;;;0.20;0.20;;;8.00;99.90;10.30;102609.00;;;;5017113;28;20581;-69
2024/01/31 18:35:18;;;;;;;0.30;0.30;;;8.00;99.90;10.30;102594.00;;;;5032395;28;20195;-69
2024/01/31 18:37:44;;;;;;;1.40;1.13;;;8.10;99.90;11.00;102610.00;;;;5030934;28;20536;-68
2024/01/31 18:40:14;;;;;;;0.20;0.20;;;8.30;99.90;10.10;102608.00;;;;5031401;28;20648;-68
2024/01/31 18:42:40;;;;;;;0.20;0.20;;;8.10;99.90;10.60;102601.00;;;;5029969;28;20179;-69
2024/01/31 18:45:07;;;;;;;0.20;0.20;;;8.10;99.90;11.50;102603.00;;;;5028275;28;20191;-70